createdAt,value
2018-05-13T00:00:40.705Z,1006.11
2018-05-13T00:01:49.352Z,1006.11
2018-05-13T00:02:58.000Z,1006.11
2018-05-13T00:04:06.643Z,1006.1
2018-05-13T00:05:15.582Z,1006.08
2018-05-13T00:06:24.212Z,1006.07
2018-05-13T00:07:32.859Z,1006.09
2018-05-13T00:08:41.505Z,1006.05
2018-05-13T00:09:50.144Z,1006.05
2018-05-13T00:10:58.796Z,1006.03
2018-05-13T00:12:07.706Z,1006.02
2018-05-13T00:13:16.348Z,1005.97
2018-05-13T00:14:25.012Z,1006.04
2018-05-13T00:15:33.915Z,1006.01
2018-05-13T00:16:42.556Z,1005.98
2018-05-13T00:17:51.203Z,1005.95
2018-05-13T00:18:59.847Z,1005.97
2018-05-13T00:20:08.497Z,1005.96
2018-05-13T00:21:17.145Z,1005.94
2018-05-13T00:22:25.792Z,1005.98
2018-05-13T00:23:34.441Z,1005.99
2018-05-13T00:24:43.094Z,1005.97
2018-05-13T00:25:51.731Z,1005.95
2018-05-13T00:27:00.377Z,1005.96
2018-05-13T00:28:09.026Z,1005.94
2018-05-13T00:29:17.664Z,1005.95
2018-05-13T00:30:26.315Z,1005.92
2018-05-13T00:31:34.955Z,1005.95
2018-05-13T00:32:43.611Z,1005.95
2018-05-13T00:33:52.516Z,1005.93
2018-05-13T00:35:01.435Z,1005.94
2018-05-13T00:36:10.344Z,1005.94
2018-05-13T00:37:19.002Z,1005.93
2018-05-13T00:38:27.656Z,1005.94
2018-05-13T00:39:36.298Z,1005.89
2018-05-13T00:40:44.941Z,1005.91
2018-05-13T00:41:53.851Z,1005.95
2018-05-13T00:43:02.509Z,1005.9
2018-05-13T00:44:11.155Z,1005.86
2018-05-13T00:45:19.844Z,1005.88
2018-05-13T00:46:28.444Z,1005.84
2018-05-13T00:47:37.099Z,1005.82
2018-05-13T00:48:45.740Z,1005.83
2018-05-13T00:49:54.659Z,1005.83
2018-05-13T00:51:03.301Z,1005.85
2018-05-13T00:52:11.952Z,1005.82
2018-05-13T00:53:20.597Z,1005.81
2018-05-13T00:54:29.244Z,1005.82
2018-05-13T00:55:37.881Z,1005.83
2018-05-13T00:56:46.530Z,1005.82
2018-05-13T00:57:55.181Z,1005.81
2018-05-13T00:59:03.830Z,1005.85
2018-05-13T01:00:12.479Z,1005.8
2018-05-13T01:01:21.117Z,1005.8
2018-05-13T01:02:29.767Z,1005.78
2018-05-13T01:03:38.407Z,1005.8
2018-05-13T01:04:47.067Z,1005.76
2018-05-13T01:05:56.231Z,1005.8
2018-05-13T01:07:04.881Z,1005.78
2018-05-13T01:08:13.525Z,1005.78
2018-05-13T01:09:22.445Z,1005.73
2018-05-13T01:10:31.350Z,1005.75
2018-05-13T01:11:39.998Z,1005.72
2018-05-13T01:12:48.642Z,1005.69
2018-05-13T01:13:57.564Z,1005.67
2018-05-13T01:15:06.207Z,1005.7
2018-05-13T01:16:14.851Z,1005.69
2018-05-13T01:17:23.495Z,1005.72
2018-05-13T01:18:32.223Z,1005.7
2018-05-13T01:19:40.791Z,1005.68
2018-05-13T01:20:49.432Z,1005.67
2018-05-13T01:21:58.085Z,1005.66
2018-05-13T01:23:06.721Z,1005.68
2018-05-13T01:24:15.380Z,1005.66
2018-05-13T01:25:24.282Z,1005.7
2018-05-13T01:26:32.934Z,1005.65
2018-05-13T01:27:41.579Z,1005.66
2018-05-13T01:28:50.224Z,1005.65
2018-05-13T01:29:58.871Z,1005.65
2018-05-13T01:31:07.779Z,1005.63
2018-05-13T01:32:16.429Z,1005.68
2018-05-13T01:33:25.074Z,1005.66
2018-05-13T01:34:33.719Z,1005.65
2018-05-13T01:35:42.374Z,1005.67
2018-05-13T01:36:51.280Z,1005.67
2018-05-13T01:37:59.931Z,1005.66
2018-05-13T01:39:08.845Z,1005.66
2018-05-13T01:40:17.490Z,1005.62
2018-05-13T01:41:26.132Z,1005.62
2018-05-13T01:42:34.784Z,1005.63
2018-05-13T01:43:43.428Z,1005.66
2018-05-13T01:44:52.351Z,1005.64
2018-05-13T01:46:00.992Z,1005.65
2018-05-13T01:47:09.644Z,1005.66
2018-05-13T01:48:18.289Z,1005.66
2018-05-13T01:49:26.941Z,1005.66
2018-05-13T01:50:35.591Z,1005.65
2018-05-13T01:51:44.232Z,1005.67
2018-05-13T01:52:52.884Z,1005.65
2018-05-13T01:54:02.072Z,1005.65
2018-05-13T01:55:10.717Z,1005.64
2018-05-13T01:56:19.355Z,1005.63
2018-05-13T01:57:28.002Z,1005.63
2018-05-13T01:58:36.649Z,1005.64
2018-05-13T01:59:45.297Z,1005.6
2018-05-13T02:00:53.936Z,1005.61
2018-05-13T02:02:02.580Z,1005.64
2018-05-13T02:03:11.226Z,1005.59
2018-05-13T02:04:19.876Z,1005.56
2018-05-13T02:05:28.784Z,1005.53
2018-05-13T02:06:37.434Z,1005.53
2018-05-13T02:07:46.073Z,1005.51
2018-05-13T02:08:54.725Z,1005.52
2018-05-13T02:10:03.367Z,1005.53
2018-05-13T02:11:12.012Z,1005.52
2018-05-13T02:12:20.923Z,1005.51
2018-05-13T02:13:29.567Z,1005.51
2018-05-13T02:14:38.221Z,1005.52
2018-05-13T02:15:46.867Z,1005.5
2018-05-13T02:16:55.776Z,1005.48
2018-05-13T02:18:04.418Z,1005.48
2018-05-13T02:19:13.070Z,1005.48
2018-05-13T02:20:21.715Z,1005.44
2018-05-13T02:21:30.360Z,1005.45
2018-05-13T02:22:39.006Z,1005.44
2018-05-13T02:23:47.665Z,1005.44
2018-05-13T02:24:56.303Z,1005.44
2018-05-13T02:26:04.952Z,1005.42
2018-05-13T02:27:13.589Z,1005.45
2018-05-13T02:28:22.508Z,1005.49
2018-05-13T02:29:31.155Z,1005.42
2018-05-13T02:30:39.801Z,1005.4
2018-05-13T02:31:48.717Z,1005.43
2018-05-13T02:32:57.359Z,1005.38
2018-05-13T02:34:06.280Z,1005.39
2018-05-13T02:35:14.927Z,1005.38
2018-05-13T02:36:23.582Z,1005.34
2018-05-13T02:37:32.222Z,1005.32
2018-05-13T02:38:41.140Z,1005.33
2018-05-13T02:39:49.781Z,1005.24
2018-05-13T02:40:58.438Z,1005.3
2018-05-13T02:42:07.598Z,1005.26
2018-05-13T02:43:16.518Z,1005.27
2018-05-13T02:44:25.165Z,1005.26
2018-05-13T02:45:33.815Z,1005.27
2018-05-13T02:46:42.723Z,1005.22
2018-05-13T02:47:51.628Z,1005.23
2018-05-13T02:49:00.277Z,1005.21
2018-05-13T02:50:08.924Z,1005.22
2018-05-13T02:51:17.584Z,1005.2
2018-05-13T02:52:26.226Z,1005.23
2018-05-13T02:53:34.878Z,1005.22
2018-05-13T02:54:43.517Z,1005.18
2018-05-13T02:55:52.437Z,1005.19
2018-05-13T02:57:01.618Z,1005.19
2018-05-13T02:58:10.285Z,1005.17
2018-05-13T02:59:18.924Z,1005.16
2018-05-13T03:00:27.576Z,1005.17
2018-05-13T03:01:36.218Z,1005.17
2018-05-13T03:02:44.874Z,1005.22
2018-05-13T03:03:53.512Z,1005.21
2018-05-13T03:05:02.174Z,1005.25
2018-05-13T03:06:10.821Z,1005.29
2018-05-13T03:07:19.479Z,1005.28
2018-05-13T03:08:28.125Z,1005.24
2018-05-13T03:09:37.033Z,1005.23
2018-05-13T03:10:45.956Z,1005.2
2018-05-13T03:11:54.860Z,1005.19
2018-05-13T03:13:03.794Z,1005.16
2018-05-13T03:14:12.431Z,1005.15
2018-05-13T03:15:21.090Z,1005.14
2018-05-13T03:16:29.733Z,1005.14
2018-05-13T03:17:38.388Z,1005.12
2018-05-13T03:18:47.305Z,1005.15
2018-05-13T03:19:55.955Z,1005.12
2018-05-13T03:21:04.601Z,1005.14
2018-05-13T03:22:13.256Z,1005.18
2018-05-13T03:23:21.903Z,1005.21
2018-05-13T03:24:30.545Z,1005.2
2018-05-13T03:25:39.194Z,1005.26
2018-05-13T03:26:47.842Z,1005.24
2018-05-13T03:27:56.478Z,1005.22
2018-05-13T03:29:05.129Z,1005.23
2018-05-13T03:30:13.771Z,1005.25
2018-05-13T03:31:22.425Z,1005.24
2018-05-13T03:32:31.069Z,1005.24
2018-05-13T03:33:39.720Z,1005.25
2018-05-13T03:34:48.362Z,1005.26
2018-05-13T03:35:57.281Z,1005.23
2018-05-13T03:37:06.196Z,1005.27
2018-05-13T03:38:14.839Z,1005.36
2018-05-13T03:39:23.487Z,1005.38
2018-05-13T03:40:32.412Z,1005.42
2018-05-13T03:41:41.053Z,1005.41
2018-05-13T03:42:49.696Z,1005.37
2018-05-13T03:43:58.347Z,1005.35
2018-05-13T03:45:06.985Z,1005.34
2018-05-13T03:46:15.639Z,1005.36
2018-05-13T03:47:24.280Z,1005.37
2018-05-13T03:48:32.928Z,1005.37
2018-05-13T03:49:41.566Z,1005.36
2018-05-13T03:50:50.226Z,1005.36
2018-05-13T03:51:58.864Z,1005.33
2018-05-13T03:53:07.514Z,1005.33
2018-05-13T03:54:16.150Z,1005.31
2018-05-13T03:55:24.804Z,1005.35
2018-05-13T03:56:33.710Z,1005.36
2018-05-13T03:57:42.359Z,1005.36
2018-05-13T03:58:50.996Z,1005.33
2018-05-13T03:59:59.909Z,1005.42
2018-05-13T04:01:08.559Z,1005.4
2018-05-13T04:02:17.204Z,1005.43
2018-05-13T04:03:25.859Z,1005.39
2018-05-13T04:04:34.489Z,1005.34
2018-05-13T04:05:43.142Z,1005.35
2018-05-13T04:06:51.782Z,1005.33
2018-05-13T04:08:00.706Z,1005.29
2018-05-13T04:09:09.342Z,1005.31
2018-05-13T04:10:17.996Z,1005.31
2018-05-13T04:11:26.638Z,1005.35
2018-05-13T04:12:35.293Z,1005.35
2018-05-13T04:13:43.929Z,1005.34
2018-05-13T04:14:52.574Z,1005.35
2018-05-13T04:16:01.221Z,1005.34
2018-05-13T04:17:10.142Z,1005.34
2018-05-13T04:18:18.786Z,1005.28
2018-05-13T04:19:27.427Z,1005.3
2018-05-13T04:20:36.069Z,1005.32
2018-05-13T04:21:44.982Z,1005.37
2018-05-13T04:22:53.899Z,1005.36
2018-05-13T04:24:02.544Z,1005.4
2018-05-13T04:25:11.191Z,1005.48
2018-05-13T04:26:19.837Z,1005.57
2018-05-13T04:27:28.489Z,1005.56
2018-05-13T04:28:37.134Z,1005.55
2018-05-13T04:29:45.781Z,1005.6
2018-05-13T04:30:54.427Z,1005.6
2018-05-13T04:32:03.342Z,1005.64
2018-05-13T04:33:11.987Z,1005.68
2018-05-13T04:34:20.636Z,1005.69
2018-05-13T04:35:29.549Z,1005.69
2018-05-13T04:36:38.203Z,1005.71
2018-05-13T04:37:46.851Z,1005.72
2018-05-13T04:38:55.766Z,1005.75
2018-05-13T04:40:04.682Z,1005.69
2018-05-13T04:41:13.323Z,1005.68
2018-05-13T04:42:22.247Z,1005.62
2018-05-13T04:43:30.894Z,1005.61
2018-05-13T04:44:39.891Z,1005.64
2018-05-13T04:45:48.532Z,1005.61
2018-05-13T04:46:57.176Z,1005.54
2018-05-13T04:48:05.822Z,1005.49
2018-05-13T04:49:14.473Z,1005.51
2018-05-13T04:50:23.111Z,1005.5
2018-05-13T04:51:31.756Z,1005.48
2018-05-13T04:52:40.401Z,1005.47
2018-05-13T04:53:49.052Z,1005.44
2018-05-13T04:54:57.695Z,1005.48
2018-05-13T04:56:06.341Z,1005.53
2018-05-13T04:57:15.246Z,1005.52
2018-05-13T04:58:23.888Z,1005.44
2018-05-13T04:59:33.073Z,1005.37
2018-05-13T05:00:41.722Z,1005.42
2018-05-13T05:01:50.630Z,1005.39
2018-05-13T05:02:59.272Z,1005.4
2018-05-13T05:04:07.922Z,1005.45
2018-05-13T05:05:16.570Z,1005.44
2018-05-13T05:06:25.212Z,1005.44
2018-05-13T05:07:33.855Z,1005.49
2018-05-13T05:08:42.500Z,1005.52
2018-05-13T05:09:51.143Z,1005.54
2018-05-13T05:10:59.791Z,1005.51
2018-05-13T05:12:08.433Z,1005.51
2018-05-13T05:13:17.349Z,1005.54
2018-05-13T05:14:25.994Z,1005.56
2018-05-13T05:15:34.641Z,1005.63
2018-05-13T05:16:43.552Z,1005.65
2018-05-13T05:17:52.193Z,1005.66
2018-05-13T05:19:00.846Z,1005.65
2018-05-13T05:20:09.492Z,1005.69
2018-05-13T05:21:18.143Z,1005.73
2018-05-13T05:22:26.782Z,1005.8
2018-05-13T05:23:35.433Z,1005.8
2018-05-13T05:24:44.071Z,1005.84
2018-05-13T05:25:52.727Z,1005.84
2018-05-13T05:27:01.363Z,1005.87
2018-05-13T05:28:10.014Z,1005.81
2018-05-13T05:29:18.653Z,1005.83
2018-05-13T05:30:27.309Z,1005.89
2018-05-13T05:31:35.951Z,1005.89
2018-05-13T05:32:44.590Z,1005.84
2018-05-13T05:33:53.504Z,1005.83
2018-05-13T05:35:02.416Z,1005.83
2018-05-13T05:36:11.072Z,1005.81
2018-05-13T05:37:19.713Z,1005.78
2018-05-13T05:38:28.367Z,1005.8
2018-05-13T05:39:37.004Z,1005.75
2018-05-13T05:40:45.667Z,1005.78
2018-05-13T05:41:54.573Z,1005.83
2018-05-13T05:43:03.224Z,1005.83
2018-05-13T05:44:12.127Z,1005.83
2018-05-13T05:45:20.782Z,1005.82
2018-05-13T05:46:29.424Z,1005.83
2018-05-13T05:47:38.076Z,1005.91
2018-05-13T05:48:46.711Z,1005.92
2018-05-13T05:49:55.356Z,1005.95
2018-05-13T05:51:04.018Z,1005.94
2018-05-13T05:52:12.660Z,1005.92
2018-05-13T05:53:21.308Z,1005.88
2018-05-13T05:54:29.948Z,1005.91
2018-05-13T05:55:38.866Z,1005.94
2018-05-13T05:56:47.513Z,1005.91
2018-05-13T05:57:56.168Z,1005.94
2018-05-13T05:59:04.805Z,1005.98
2018-05-13T06:00:13.456Z,1005.97
2018-05-13T06:01:22.097Z,1005.97
2018-05-13T06:02:30.753Z,1005.91
2018-05-13T06:03:40.183Z,1005.89
2018-05-13T06:04:48.829Z,1005.9
2018-05-13T06:05:57.476Z,1005.89
2018-05-13T06:07:06.134Z,1005.86
2018-05-13T06:08:14.774Z,1005.85
2018-05-13T06:09:23.414Z,1005.84
2018-05-13T06:10:32.055Z,1005.85
2018-05-13T06:11:40.699Z,1005.85
2018-05-13T06:12:49.351Z,1005.82
2018-05-13T06:13:57.993Z,1005.81
2018-05-13T06:15:07.002Z,1005.8
2018-05-13T06:16:15.640Z,1005.76
2018-05-13T06:17:24.570Z,1005.77
2018-05-13T06:18:33.476Z,1005.69
2018-05-13T06:19:42.231Z,1005.66
2018-05-13T06:20:50.770Z,1005.69
2018-05-13T06:21:59.690Z,1005.69
2018-05-13T06:23:08.335Z,1005.68
2018-05-13T06:24:16.985Z,1005.68
2018-05-13T06:25:25.627Z,1005.69
2018-05-13T06:26:34.276Z,1005.71
2018-05-13T06:27:42.925Z,1005.68
2018-05-13T06:28:51.841Z,1005.7
2018-05-13T06:30:00.749Z,1005.71
2018-05-13T06:31:09.400Z,1005.7
2018-05-13T06:32:18.317Z,1005.74
2018-05-13T06:33:26.967Z,1005.71
2018-05-13T06:34:35.619Z,1005.72
2018-05-13T06:35:44.264Z,1005.71
2018-05-13T06:36:52.927Z,1005.73
2018-05-13T06:38:01.836Z,1005.74
2018-05-13T06:39:10.754Z,1005.7
2018-05-13T06:40:19.398Z,1005.69
2018-05-13T06:41:28.047Z,1005.69
2018-05-13T06:42:36.692Z,1005.66
2018-05-13T06:43:45.344Z,1005.68
2018-05-13T06:44:53.987Z,1005.67
2018-05-13T06:46:02.636Z,1005.7
2018-05-13T06:47:11.549Z,1005.71
2018-05-13T06:48:20.195Z,1005.71
2018-05-13T06:49:28.845Z,1005.74
2018-05-13T06:50:37.496Z,1005.77
2018-05-13T06:51:46.144Z,1005.81
2018-05-13T06:52:55.050Z,1005.77
2018-05-13T06:54:03.701Z,1005.77
2018-05-13T06:55:12.349Z,1005.75
2018-05-13T06:56:20.999Z,1005.81
2018-05-13T06:57:29.904Z,1005.79
2018-05-13T06:58:38.558Z,1005.83
2018-05-13T06:59:47.209Z,1005.83
2018-05-13T07:00:56.125Z,1005.82
2018-05-13T07:02:04.769Z,1005.8
2018-05-13T07:03:13.422Z,1005.79
2018-05-13T07:04:22.340Z,1005.81
2018-05-13T07:05:30.991Z,1005.77
2018-05-13T07:06:39.645Z,1005.75
2018-05-13T07:07:48.285Z,1005.71
2018-05-13T07:08:56.939Z,1005.73
2018-05-13T07:10:05.587Z,1005.75
2018-05-13T07:11:14.240Z,1005.77
2018-05-13T07:12:22.886Z,1005.78
2018-05-13T07:13:31.535Z,1005.73
2018-05-13T07:14:40.183Z,1005.71
2018-05-13T07:15:48.840Z,1005.67
2018-05-13T07:16:57.486Z,1005.62
2018-05-13T07:18:06.139Z,1005.6
2018-05-13T07:19:14.789Z,1005.57
2018-05-13T07:20:23.436Z,1005.58
2018-05-13T07:21:32.627Z,1005.61
2018-05-13T07:22:41.277Z,1005.63
2018-05-13T07:23:49.930Z,1005.62
2018-05-13T07:24:58.587Z,1005.62
2018-05-13T07:26:07.228Z,1005.63
2018-05-13T07:27:15.873Z,1005.64
2018-05-13T07:28:24.522Z,1005.61
2018-05-13T07:29:33.180Z,1005.63
2018-05-13T07:30:41.827Z,1005.6
2018-05-13T07:31:50.746Z,1005.62
2018-05-13T07:32:59.393Z,1005.61
2018-05-13T07:34:08.047Z,1005.62
2018-05-13T07:35:16.692Z,1005.59
2018-05-13T07:36:25.342Z,1005.58
2018-05-13T07:37:33.988Z,1005.64
2018-05-13T07:38:42.644Z,1005.6
2018-05-13T07:39:51.564Z,1005.6
2018-05-13T07:41:00.210Z,1005.59
2018-05-13T07:42:08.855Z,1005.55
2018-05-13T07:43:17.509Z,1005.48
2018-05-13T07:44:26.555Z,1005.49
2018-05-13T07:45:35.207Z,1005.5
2018-05-13T07:46:43.934Z,1005.5
2018-05-13T07:47:52.765Z,1005.52
2018-05-13T07:49:01.421Z,1005.48
2018-05-13T07:50:10.070Z,1005.51
2018-05-13T07:51:18.720Z,1005.55
2018-05-13T07:52:27.624Z,1005.58
2018-05-13T07:53:36.281Z,1005.57
2018-05-13T07:54:44.929Z,1005.61
2018-05-13T07:55:53.578Z,1005.6
2018-05-13T07:57:02.227Z,1005.58
2018-05-13T07:58:11.407Z,1005.58
2018-05-13T07:59:20.058Z,1005.53
2018-05-13T08:00:28.974Z,1005.55
2018-05-13T08:01:37.629Z,1005.51
2018-05-13T08:02:46.274Z,1005.55
2018-05-13T08:03:54.927Z,1005.58
2018-05-13T08:05:03.580Z,1005.62
2018-05-13T08:06:12.593Z,1005.7
2018-05-13T08:07:21.142Z,1005.72
2018-05-13T08:08:29.793Z,1005.76
2018-05-13T08:09:38.742Z,1005.76
2018-05-13T08:10:47.661Z,1005.8
2018-05-13T08:11:56.305Z,1005.82
2018-05-13T08:13:04.957Z,1005.8
2018-05-13T08:14:13.607Z,1005.79
2018-05-13T08:15:22.522Z,1005.8
2018-05-13T08:16:31.167Z,1005.82
2018-05-13T08:17:39.816Z,1005.84
2018-05-13T08:18:48.463Z,1005.84
2018-05-13T08:19:57.111Z,1005.88
2018-05-13T08:21:05.769Z,1005.89
2018-05-13T08:22:14.414Z,1005.94
2018-05-13T08:23:23.074Z,1005.99
2018-05-13T08:24:31.980Z,1005.98
2018-05-13T08:25:40.639Z,1006.03
2018-05-13T08:26:49.285Z,1006.04
2018-05-13T08:27:57.941Z,1006.02
2018-05-13T08:29:06.577Z,1006
2018-05-13T08:30:15.236Z,1006
2018-05-13T08:31:24.147Z,1005.97
2018-05-13T08:32:32.797Z,1006.01
2018-05-13T08:33:41.438Z,1006.02
2018-05-13T08:34:50.357Z,1006.01
2018-05-13T08:35:59.015Z,1005.99
2018-05-13T08:37:07.670Z,1005.98
2018-05-13T08:38:16.322Z,1005.95
2018-05-13T08:39:24.961Z,1005.91
2018-05-13T08:40:33.617Z,1005.88
2018-05-13T08:41:42.261Z,1005.85
2018-05-13T08:42:50.921Z,1005.86
2018-05-13T08:43:59.565Z,1005.87
2018-05-13T08:45:08.227Z,1005.83
2018-05-13T08:46:16.870Z,1005.87
2018-05-13T08:47:25.529Z,1005.89
2018-05-13T08:48:34.193Z,1005.93
2018-05-13T08:49:42.828Z,1005.9
2018-05-13T08:50:51.473Z,1005.89
2018-05-13T08:52:00.135Z,1005.89
2018-05-13T08:53:08.783Z,1005.85
2018-05-13T08:54:17.432Z,1005.88
2018-05-13T08:55:26.084Z,1005.9
2018-05-13T08:56:34.726Z,1005.9
2018-05-13T08:57:43.385Z,1005.91
2018-05-13T08:58:52.033Z,1005.89
2018-05-13T09:00:00.955Z,1005.95
2018-05-13T09:01:09.860Z,1005.9
2018-05-13T09:02:18.783Z,1005.92
2018-05-13T09:03:27.953Z,1005.9
2018-05-13T09:04:36.877Z,1005.86
2018-05-13T09:05:45.517Z,1005.86
2018-05-13T09:06:54.177Z,1005.9
2018-05-13T09:08:02.826Z,1005.88
2018-05-13T09:09:11.746Z,1005.93
2018-05-13T09:10:20.390Z,1005.9
2018-05-13T09:11:29.037Z,1005.91
2018-05-13T09:12:37.694Z,1005.88
2018-05-13T09:13:46.614Z,1005.86
2018-05-13T09:14:55.265Z,1005.87
2018-05-13T09:16:04.183Z,1005.84
2018-05-13T09:17:12.840Z,1005.81
2018-05-13T09:18:21.492Z,1005.81
2018-05-13T09:19:30.148Z,1005.78
2018-05-13T09:20:38.802Z,1005.76
2018-05-13T09:21:48.282Z,1005.72
2018-05-13T09:22:56.924Z,1005.71
2018-05-13T09:24:05.584Z,1005.71
2018-05-13T09:25:14.231Z,1005.68
2018-05-13T09:26:22.885Z,1005.66
2018-05-13T09:27:31.880Z,1005.62
2018-05-13T09:28:40.542Z,1005.65
2018-05-13T09:29:49.462Z,1005.62
2018-05-13T09:30:58.104Z,1005.65
2018-05-13T09:32:06.750Z,1005.59
2018-05-13T09:33:15.401Z,1005.6
2018-05-13T09:34:24.060Z,1005.59
2018-05-13T09:35:32.707Z,1005.57
2018-05-13T09:36:41.626Z,1005.55
2018-05-13T09:37:50.278Z,1005.53
2018-05-13T09:38:59.200Z,1005.54
2018-05-13T09:40:08.120Z,1005.51
2018-05-13T09:41:17.043Z,1005.51
2018-05-13T09:42:25.686Z,1005.48
2018-05-13T09:43:34.346Z,1005.51
2018-05-13T09:44:42.994Z,1005.52
2018-05-13T09:45:51.681Z,1005.49
2018-05-13T09:47:00.561Z,1005.46
2018-05-13T09:48:09.216Z,1005.47
2018-05-13T09:49:17.874Z,1005.47
2018-05-13T09:50:26.525Z,1005.43
2018-05-13T09:51:35.177Z,1005.43
2018-05-13T09:52:43.818Z,1005.39
2018-05-13T09:53:52.472Z,1005.41
2018-05-13T09:55:01.119Z,1005.39
2018-05-13T09:56:09.780Z,1005.4
2018-05-13T09:57:18.421Z,1005.39
2018-05-13T09:58:27.081Z,1005.38
2018-05-13T09:59:35.725Z,1005.41
2018-05-13T10:00:44.384Z,1005.42
2018-05-13T10:01:53.027Z,1005.41
2018-05-13T10:03:01.945Z,1005.44
2018-05-13T10:04:10.677Z,1005.43
2018-05-13T10:05:19.261Z,1005.46
2018-05-13T10:06:27.914Z,1005.46
2018-05-13T10:07:36.559Z,1005.49
2018-05-13T10:08:45.206Z,1005.47
2018-05-13T10:09:53.860Z,1005.46
2018-05-13T10:11:02.521Z,1005.48
2018-05-13T10:12:11.166Z,1005.49
2018-05-13T10:13:19.821Z,1005.45
2018-05-13T10:14:28.462Z,1005.41
2018-05-13T10:15:37.389Z,1005.43
2018-05-13T10:16:46.043Z,1005.42
2018-05-13T10:17:54.695Z,1005.41
2018-05-13T10:19:03.344Z,1005.4
2018-05-13T10:20:12.264Z,1005.37
2018-05-13T10:21:20.988Z,1005.37
2018-05-13T10:22:29.571Z,1005.36
2018-05-13T10:23:38.219Z,1005.34
2018-05-13T10:24:47.136Z,1005.31
2018-05-13T10:25:55.787Z,1005.31
2018-05-13T10:27:04.441Z,1005.33
2018-05-13T10:28:13.094Z,1005.33
2018-05-13T10:29:21.740Z,1005.34
2018-05-13T10:30:30.396Z,1005.38
2018-05-13T10:31:39.048Z,1005.37
2018-05-13T10:32:47.717Z,1005.36
2018-05-13T10:33:56.623Z,1005.37
2018-05-13T10:35:05.276Z,1005.39
2018-05-13T10:36:13.928Z,1005.35
2018-05-13T10:37:22.866Z,1005.35
2018-05-13T10:38:31.778Z,1005.39
2018-05-13T10:39:40.434Z,1005.39
2018-05-13T10:40:49.090Z,1005.37
2018-05-13T10:41:57.748Z,1005.37
2018-05-13T10:43:06.398Z,1005.31
2018-05-13T10:44:15.051Z,1005.32
2018-05-13T10:45:23.700Z,1005.33
2018-05-13T10:46:32.351Z,1005.32
2018-05-13T10:47:41.009Z,1005.32
2018-05-13T10:48:49.659Z,1005.25
2018-05-13T10:49:58.313Z,1005.22
2018-05-13T10:51:06.960Z,1005.19
2018-05-13T10:52:15.953Z,1005.17
2018-05-13T10:53:24.602Z,1005.13
2018-05-13T10:54:33.258Z,1005.12
2018-05-13T10:55:41.904Z,1005.15
2018-05-13T10:56:50.840Z,1005.17
2018-05-13T10:57:59.491Z,1005.13
2018-05-13T10:59:08.145Z,1005.15
2018-05-13T11:00:16.793Z,1005.15
2018-05-13T11:01:25.449Z,1005.14
2018-05-13T11:02:34.103Z,1005.12
2018-05-13T11:03:42.763Z,1005.14
2018-05-13T11:04:51.510Z,1005.12
2018-05-13T11:06:00.331Z,1005.14
2018-05-13T11:07:08.982Z,1005.1
2018-05-13T11:08:17.916Z,1005.11
2018-05-13T11:09:26.841Z,1005.17
2018-05-13T11:10:35.488Z,1005.17
2018-05-13T11:11:44.140Z,1005.17
2018-05-13T11:12:52.792Z,1005.16
2018-05-13T11:14:01.443Z,1005.14
2018-05-13T11:15:10.111Z,1005.17
2018-05-13T11:16:18.751Z,1005.16
2018-05-13T11:17:27.408Z,1005.15
2018-05-13T11:18:36.055Z,1005.13
2018-05-13T11:19:44.712Z,1005.14
2018-05-13T11:20:53.368Z,1005.13
2018-05-13T11:22:02.292Z,1005.19
2018-05-13T11:23:10.951Z,1005.19
2018-05-13T11:24:19.596Z,1005.2
2018-05-13T11:25:28.255Z,1005.21
2018-05-13T11:26:36.905Z,1005.17
2018-05-13T11:27:45.832Z,1005.12
2018-05-13T11:28:54.479Z,1005.14
2018-05-13T11:30:03.136Z,1005.11
2018-05-13T11:31:11.789Z,1005.1
2018-05-13T11:32:20.451Z,1005.1
2018-05-13T11:33:29.098Z,1005.11
2018-05-13T11:34:37.756Z,1005.14
2018-05-13T11:35:46.407Z,1005.1
2018-05-13T11:36:55.327Z,1005.08
2018-05-13T11:38:03.978Z,1005.11
2018-05-13T11:39:12.631Z,1005.05
2018-05-13T11:40:21.281Z,1005.06
2018-05-13T11:41:29.933Z,1005
2018-05-13T11:42:38.598Z,1005.04
2018-05-13T11:43:47.245Z,1004.99
2018-05-13T11:44:56.169Z,1005.04
2018-05-13T11:46:04.817Z,1005.01
2018-05-13T11:47:13.477Z,1004.99
2018-05-13T11:48:22.127Z,1005.01
2018-05-13T11:49:31.044Z,1004.97
2018-05-13T11:50:39.692Z,1004.91
2018-05-13T11:51:48.619Z,1004.91
2018-05-13T11:52:57.268Z,1004.89
2018-05-13T11:54:05.925Z,1004.89
2018-05-13T11:55:14.573Z,1004.9
2018-05-13T11:56:23.230Z,1004.88
2018-05-13T11:57:31.880Z,1004.87
2018-05-13T11:58:40.536Z,1004.81
2018-05-13T11:59:49.193Z,1004.78
2018-05-13T12:00:57.842Z,1004.82
2018-05-13T12:02:06.551Z,1004.75
2018-05-13T12:03:15.152Z,1004.69
2018-05-13T12:04:23.899Z,1004.69
2018-05-13T12:05:32.460Z,1004.65
2018-05-13T12:06:41.114Z,1004.65
2018-05-13T12:07:49.768Z,1004.61
2018-05-13T12:08:58.425Z,1004.62
2018-05-13T12:10:07.337Z,1004.53
2018-05-13T12:11:15.996Z,1004.52
2018-05-13T12:12:24.648Z,1004.53
2018-05-13T12:13:33.588Z,1004.49
2018-05-13T12:14:42.234Z,1004.5
2018-05-13T12:15:50.892Z,1004.51
2018-05-13T12:16:59.535Z,1004.47
2018-05-13T12:18:08.446Z,1004.49
2018-05-13T12:19:17.108Z,1004.53
2018-05-13T12:20:25.763Z,1004.55
2018-05-13T12:21:34.419Z,1004.57
2018-05-13T12:22:43.330Z,1004.61
2018-05-13T12:23:52.066Z,1004.58
2018-05-13T12:25:00.636Z,1004.63
2018-05-13T12:26:09.295Z,1004.59
2018-05-13T12:27:17.940Z,1004.57
2018-05-13T12:28:26.603Z,1004.51
2018-05-13T12:29:35.255Z,1004.54
2018-05-13T12:30:43.915Z,1004.55
2018-05-13T12:31:52.824Z,1004.51
2018-05-13T12:33:02.011Z,1004.51
2018-05-13T12:34:10.669Z,1004.46
2018-05-13T12:35:19.324Z,1004.45
2018-05-13T12:36:27.980Z,1004.45
2018-05-13T12:37:36.886Z,1004.4
2018-05-13T12:38:45.546Z,1004.39
2018-05-13T12:39:54.196Z,1004.38
2018-05-13T12:41:02.879Z,1004.34
2018-05-13T12:42:11.521Z,1004.39
2018-05-13T12:43:20.182Z,1004.36
2018-05-13T12:44:29.096Z,1004.34
2018-05-13T12:45:37.760Z,1004.44
2018-05-13T12:46:46.407Z,1004.53
2018-05-13T12:47:55.067Z,1004.47
2018-05-13T12:49:03.717Z,1004.51
2018-05-13T12:50:12.418Z,1004.49
2018-05-13T12:51:21.033Z,1004.3
2018-05-13T12:52:29.683Z,1004.19
2018-05-13T12:53:38.337Z,1004.19
2018-05-13T12:54:46.995Z,1004.25
2018-05-13T12:55:55.657Z,1004.27
2018-05-13T12:57:04.303Z,1004.21
2018-05-13T12:58:12.962Z,1004.18
2018-05-13T12:59:21.608Z,1004.16
2018-05-13T13:00:30.277Z,1004.25
2018-05-13T13:01:38.922Z,1004.3
2018-05-13T13:02:47.585Z,1004.42
2018-05-13T13:03:56.230Z,1004.53
2018-05-13T13:05:05.160Z,1004.72
2018-05-13T13:06:13.819Z,1004.93
2018-05-13T13:07:22.468Z,1005.05
2018-05-13T13:08:31.113Z,1005.2
2018-05-13T13:09:39.770Z,1005.4
2018-05-13T13:10:48.426Z,1005.48
2018-05-13T13:11:57.080Z,1005.55
2018-05-13T13:13:05.752Z,1005.68
2018-05-13T13:14:14.380Z,1005.86
2018-05-13T13:15:23.030Z,1005.97
2018-05-13T13:16:31.681Z,1006.02
2018-05-13T13:17:40.337Z,1005.86
2018-05-13T13:18:48.984Z,1005.95
2018-05-13T13:19:57.643Z,1006.03
2018-05-13T13:21:06.288Z,1005.93
2018-05-13T13:22:15.045Z,1005.87
2018-05-13T13:23:23.588Z,1005.81
2018-05-13T13:24:32.240Z,1005.77
2018-05-13T13:25:40.886Z,1005.73
2018-05-13T13:26:49.538Z,1005.75
2018-05-13T13:27:58.185Z,1005.56
2018-05-13T13:29:06.836Z,1005.47
2018-05-13T13:30:15.485Z,1005.37
2018-05-13T13:31:24.762Z,1005.25
2018-05-13T13:32:33.414Z,1005.22
2018-05-13T13:33:42.062Z,1005.12
2018-05-13T13:34:50.711Z,1005.09
2018-05-13T13:35:59.623Z,1005.13
2018-05-13T13:37:08.268Z,1005.19
2018-05-13T13:38:17.179Z,1005.3
2018-05-13T13:39:25.824Z,1005.47
2018-05-13T13:40:34.468Z,1005.58
2018-05-13T13:41:43.122Z,1005.64
2018-05-13T13:42:52.036Z,1005.73
2018-05-13T13:44:00.687Z,1005.79
2018-05-13T13:45:09.326Z,1005.83
2018-05-13T13:46:17.975Z,1005.8
2018-05-13T13:47:26.621Z,1005.7
2018-05-13T13:48:35.271Z,1005.53
2018-05-13T13:49:43.919Z,1005.41
2018-05-13T13:50:52.836Z,1005.36
2018-05-13T13:52:01.485Z,1005.28
2018-05-13T13:53:10.131Z,1005.22
2018-05-13T13:54:18.784Z,1005.19